Time;durP1;ratioP1;P1;durP2;ratioP2;P2;SDS_P1;SDS_P2;PMS_P1;PMS_P2;Temp;Humidity;BMP_temperature;BMP_pressure;BME280_temperature;BME280_humidity;BME280_pressure;Samples;Min_cycle;Max_cycle;Signal;HPM_P1;HPM_P2
2022/11/18 00:01:27;;;;;;;20.53;16.90;;;;;;;2.77;100.00;99812.16;4984902;28;20315;-54
2022/11/18 00:03:53;;;;;;;20.90;15.97;;;;;;;2.90;100.00;99817.53;4989569;28;20316;-54
2022/11/18 00:06:21;;;;;;;19.93;16.57;;;;;;;3.48;100.00;99816.63;4986508;28;20922;-54
2022/11/18 00:08:48;;;;;;;20.87;15.67;;;;;;;3.27;100.00;99829.31;4977753;28;20246;-57
2022/11/18 00:16:43;;;;;;;19.77;15.60;;;;;;;3.80;100.00;99811.81;4979362;28;20389;-54
2022/11/18 00:19:12;;;;;;;20.37;16.10;;;;;;;3.88;100.00;99798.91;4985202;28;21390;-55
2022/11/18 00:21:39;;;;;;;20.57;15.93;;;;;;;3.93;100.00;99796.34;4986161;28;20606;-54
2022/11/18 00:24:06;;;;;;;21.73;15.13;;;;;;;3.77;100.00;99809.19;4983995;28;20236;-53
2022/11/18 00:26:32;;;;;;;18.53;15.70;;;;;;;3.44;100.00;99807.06;4985012;28;20331;-54
2022/11/18 00:28:59;;;;;;;20.70;16.27;;;;;;;3.58;100.00;99817.63;4978315;28;20332;-55
2022/11/18 00:31:25;;;;;;;21.47;15.53;;;;;;;3.26;100.00;99823.22;4980538;28;20243;-53
2022/11/18 00:33:53;;;;;;;20.67;16.37;;;;;;;3.54;100.00;99815.81;4978939;28;20235;-53
2022/11/18 00:36:20;;;;;;;18.10;15.50;;;;;;;3.28;100.00;99815.50;4980878;28;20329;-54
2022/11/18 00:38:47;;;;;;;19.53;15.77;;;;;;;3.59;100.00;99819.34;4977419;28;22515;-55
2022/11/18 00:41:15;;;;;;;19.47;15.43;;;;;;;3.49;100.00;99814.91;4989342;28;20243;-55
2022/11/18 00:43:41;;;;;;;25.83;17.43;;;;;;;3.24;100.00;99827.53;4990607;28;20235;-53
2022/11/18 00:46:09;;;;;;;18.27;15.20;;;;;;;3.29;100.00;99820.69;4981962;28;20483;-54
2022/11/18 00:48:36;;;;;;;19.93;14.77;;;;;;;3.38;100.00;99817.34;4985003;28;20242;-54
2022/11/18 00:51:13;;;;;;;21.30;16.63;;;;;;;2.94;100.00;99820.19;4981811;28;20788;-54
2022/11/18 00:53:40;;;;;;;19.47;16.10;;;;;;;3.37;100.00;99818.22;4989958;28;20318;-54
2022/11/18 00:56:07;;;;;;;21.10;15.73;;;;;;;3.33;100.00;99825.09;4984913;28;20763;-54
2022/11/18 00:58:34;;;;;;;18.17;15.60;;;;;;;3.02;99.92;99817.69;4978334;28;20256;-55
2022/11/18 01:01:00;;;;;;;18.63;15.73;;;;;;;3.48;100.00;99818.34;4982310;28;20232;-54
2022/11/18 01:03:28;;;;;;;18.17;16.10;;;;;;;3.61;100.00;99815.03;4987649;28;20244;-55
2022/11/18 01:05:54;;;;;;;17.97;15.50;;;;;;;3.48;99.48;99813.16;4980265;28;20249;-56
2022/11/18 01:08:23;;;;;;;19.37;15.80;;;;;;;3.20;98.17;99817.97;4979220;28;20320;-56
2022/11/18 01:10:51;;;;;;;17.00;13.83;;;;;;;3.18;98.95;99818.81;4980307;28;20247;-54
2022/11/18 01:13:19;;;;;;;19.87;16.40;;;;;;;3.24;99.73;99817.16;4993624;28;20279;-56
2022/11/18 01:15:47;;;;;;;19.93;15.97;;;;;;;2.96;100.00;99817.63;4978107;28;20276;-55
2022/11/18 01:18:14;;;;;;;16.10;13.83;;;;;;;3.01;100.00;99823.75;4978707;28;20309;-54
2022/11/18 01:20:40;;;;;;;18.03;14.53;;;;;;;3.03;100.00;99822.06;4980228;28;20233;-53
2022/11/18 01:23:07;;;;;;;17.33;14.87;;;;;;;2.90;100.00;99822.72;4982508;28;20232;-54
2022/11/18 01:25:37;;;;;;;17.90;14.57;;;;;;;3.07;100.00;99827.28;4984805;28;20252;-54
2022/11/18 01:28:04;;;;;;;17.83;14.37;;;;;;;3.43;100.00;99815.69;4978272;28;20272;-55
2022/11/18 01:30:33;;;;;;;17.80;15.47;;;;;;;2.94;97.30;99817.59;4982301;28;20355;-54
2022/11/18 01:33:00;;;;;;;17.07;14.67;;;;;;;3.02;100.00;99828.06;4982388;28;20320;-54
2022/11/18 01:35:26;;;;;;;19.30;15.20;;;;;;;3.03;98.61;99830.69;4983442;28;20240;-54
2022/11/18 01:37:53;;;;;;;19.90;14.93;;;;;;;3.29;100.00;99833.66;4978165;28;20674;-55
2022/11/18 01:40:20;;;;;;;17.93;15.53;;;;;;;3.25;99.43;99836.19;4983659;28;20316;-55
2022/11/18 01:42:48;;;;;;;17.87;13.30;;;;;;;3.45;95.98;99834.75;4986130;28;20273;-58
2022/11/18 01:45:35;;;;;;;16.00;13.70;;;;;;;3.11;96.07;99843.78;4985932;28;20225;-54
2022/11/18 01:48:07;;;;;;;17.70;14.63;;;;;;;3.04;97.26;99841.94;4976099;28;20320;-54
2022/11/18 01:50:35;;;;;;;19.70;14.97;;;;;;;3.18;96.75;99840.41;4975550;28;20331;-54
2022/11/18 01:53:05;;;;;;;18.37;15.43;;;;;;;3.01;99.36;99841.88;4982989;28;20329;-55
2022/11/18 01:55:34;;;;;;;16.07;13.67;;;;;;;2.92;99.13;99841.78;4982799;28;20395;-54
2022/11/18 01:58:08;;;;;;;18.07;15.43;;;;;;;2.95;99.30;99836.59;4980436;28;20256;-55
2022/11/18 02:00:35;;;;;;;17.63;14.63;;;;;;;3.00;99.48;99829.78;4982894;28;20449;-54
2022/11/18 02:03:02;;;;;;;17.17;15.37;;;;;;;3.30;97.43;99840.59;4981109;28;20245;-54
2022/11/18 02:05:29;;;;;;;17.63;15.67;;;;;;;3.10;96.33;99842.03;4987818;28;20303;-54
2022/11/18 02:07:56;;;;;;;18.60;14.90;;;;;;;3.02;96.33;99836.75;4978839;28;20332;-53
2022/11/18 02:10:23;;;;;;;17.63;14.33;;;;;;;3.33;98.51;99840.66;4983918;28;20755;-54
2022/11/18 02:12:51;;;;;;;20.13;16.20;;;;;;;2.97;95.36;99846.16;4995006;28;20287;-54
2022/11/18 02:15:25;;;;;;;17.27;15.47;;;;;;;2.95;96.19;99842.69;4990183;28;20327;-55
2022/11/18 02:17:57;;;;;;;19.07;15.20;;;;;;;3.05;95.99;99828.13;4996538;28;20296;-54
2022/11/18 02:20:28;;;;;;;17.13;15.07;;;;;;;2.90;94.63;99836.53;4982328;28;20261;-59
2022/11/18 02:23:17;;;;;;;21.47;17.50;;;;;;;3.23;96.35;99840.47;4995118;28;20232;-55
2022/11/18 02:25:55;;;;;;;19.87;15.33;;;;;;;2.75;97.24;99842.38;4982595;28;20299;-54
2022/11/18 02:28:35;;;;;;;18.27;15.93;;;;;;;2.84;97.09;99839.94;4975345;28;20319;-55
2022/11/18 02:31:07;;;;;;;18.23;16.23;;;;;;;2.93;98.36;99840.91;4980678;28;20320;-57
2022/11/18 02:33:38;;;;;;;20.67;15.17;;;;;;;3.01;97.32;99849.66;4981504;28;20259;-54
2022/11/18 02:36:08;;;;;;;29.57;14.87;;;;;;;2.86;94.28;99847.72;4987938;28;20336;-55
2022/11/18 02:38:37;;;;;;;17.30;14.80;;;;;;;2.64;94.96;99836.16;4988836;28;20228;-54
2022/11/18 02:41:06;;;;;;;17.03;14.50;;;;;;;3.14;97.13;99843.81;4976927;28;20267;-54
2022/11/18 02:43:34;;;;;;;20.13;15.50;;;;;;;3.39;95.87;99849.34;4981906;28;20263;-56
2022/11/18 02:46:04;;;;;;;21.07;15.57;;;;;;;3.19;92.93;99851.66;4982441;28;20279;-58
2022/11/18 02:48:32;;;;;;;17.50;15.00;;;;;;;2.66;93.98;99849.97;4977373;28;20719;-56
2022/11/18 02:51:00;;;;;;;18.57;15.07;;;;;;;2.97;95.20;99850.47;4981373;28;20264;-55
2022/11/18 02:53:28;;;;;;;20.13;15.47;;;;;;;2.98;96.02;99841.84;4984187;28;20244;-54
2022/11/18 02:55:55;;;;;;;17.53;14.07;;;;;;;3.16;95.88;99842.13;4985553;28;20320;-54
2022/11/18 02:58:22;;;;;;;17.33;14.63;;;;;;;2.94;95.33;99853.88;4985323;28;20241;-55
2022/11/18 03:00:53;;;;;;;18.90;15.00;;;;;;;2.89;96.59;99854.69;4980286;28;20320;-53
2022/11/18 03:03:30;;;;;;;17.50;14.83;;;;;;;2.77;96.13;99848.47;4983815;28;20264;-54
2022/11/18 03:06:06;;;;;;;18.20;15.87;;;;;;;2.39;97.90;99851.28;4982571;28;21007;-55
2022/11/18 03:08:38;;;;;;;17.23;14.97;;;;;;;2.70;99.15;99849.19;4985703;28;20267;-54
2022/11/18 03:11:12;;;;;;;21.23;14.77;;;;;;;2.67;96.83;99845.66;4986614;28;20293;-55
2022/11/18 03:13:47;;;;;;;17.77;15.87;;;;;;;2.46;98.00;99841.91;4969533;28;20787;-54
2022/11/18 03:16:17;;;;;;;19.47;15.93;;;;;;;2.43;94.83;99843.56;4972043;28;20233;-54
2022/11/18 03:18:52;;;;;;;17.80;15.70;;;;;;;2.59;97.56;99841.22;4974840;28;20318;-54
2022/11/18 03:21:23;;;;;;;18.13;15.13;;;;;;;2.52;97.81;99841.09;4974452;28;20254;-55
2022/11/18 03:23:54;;;;;;;19.77;16.30;;;;;;;2.94;99.10;99845.25;4979410;28;20324;-54
2022/11/18 03:26:24;;;;;;;16.97;14.93;;;;;;;3.10;97.32;99844.63;4979983;28;20241;-54
2022/11/18 03:28:56;;;;;;;19.03;15.13;;;;;;;2.60;95.35;99852.50;4978374;28;20245;-55
2022/11/18 03:31:26;;;;;;;17.33;15.40;;;;;;;2.63;97.36;99855.09;4977931;28;20417;-54
2022/11/18 03:33:57;;;;;;;22.27;16.93;;;;;;;2.76;99.91;99861.38;4985272;28;20746;-55
2022/11/18 03:36:28;;;;;;;18.10;15.67;;;;;;;3.04;97.44;99867.88;4987647;28;20315;-55
2022/11/18 03:38:59;;;;;;;19.90;17.10;;;;;;;2.92;95.86;99867.69;4985907;28;20577;-54
2022/11/18 03:41:28;;;;;;;19.60;16.13;;;;;;;3.09;98.80;99876.59;4984145;28;20247;-54
2022/11/18 03:43:57;;;;;;;19.23;16.77;;;;;;;2.92;98.34;99868.56;4981024;28;20347;-55
2022/11/18 03:46:29;;;;;;;18.77;15.87;;;;;;;2.90;99.89;99870.25;4976801;28;20316;-54
2022/11/18 03:49:00;;;;;;;17.27;15.40;;;;;;;2.64;99.21;99875.00;4976082;28;20790;-54
2022/11/18 03:51:31;;;;;;;20.87;16.90;;;;;;;2.34;100.00;99876.19;4974542;28;20237;-56
2022/11/18 03:54:02;;;;;;;21.37;17.33;;;;;;;2.51;100.00;99863.56;4975091;28;20230;-54
2022/11/18 03:56:30;;;;;;;20.40;17.60;;;;;;;2.58;100.00;99882.66;4981917;28;20250;-54
2022/11/18 03:59:02;;;;;;;19.83;16.17;;;;;;;2.60;100.00;99883.59;4982382;28;20261;-54
2022/11/18 04:01:34;;;;;;;18.67;15.50;;;;;;;2.67;100.00;99887.13;4972122;28;20440;-55
2022/11/18 04:04:02;;;;;;;20.37;18.07;;;;;;;2.43;100.00;99887.59;4975593;28;20291;-54
2022/11/18 04:06:34;;;;;;;23.17;16.57;;;;;;;2.80;98.50;99895.13;4982635;28;20332;-55
2022/11/18 04:09:12;;;;;;;22.97;17.97;;;;;;;2.49;100.00;99885.09;4975986;28;20233;-54
2022/11/18 04:14:27;;;;;;;19.63;16.37;;;;;;;3.01;100.00;99896.34;4979939;28;20450;-54
2022/11/18 04:16:53;;;;;;;21.77;17.70;;;;;;;2.56;97.70;99894.72;4979944;28;20241;-53
2022/11/18 04:19:21;;;;;;;22.10;17.30;;;;;;;2.51;99.16;99893.78;4982774;28;20363;-55
2022/11/18 04:21:49;;;;;;;23.43;18.07;;;;;;;2.34;100.00;99893.47;4979730;28;20236;-54
2022/11/18 04:24:16;;;;;;;22.67;17.70;;;;;;;2.20;98.87;99889.75;4980846;28;20311;-54
2022/11/18 04:26:42;;;;;;;22.37;18.10;;;;;;;2.04;100.00;99898.94;4977222;28;20311;-54
2022/11/18 04:29:09;;;;;;;24.30;20.07;;;;;;;1.96;100.00;99900.50;4981531;28;20247;-55
2022/11/18 04:31:35;;;;;;;25.57;19.57;;;;;;;1.69;100.00;99895.66;4981272;28;20642;-54
2022/11/18 04:34:02;;;;;;;26.97;20.97;;;;;;;2.31;100.00;99896.84;4985577;28;20263;-54
2022/11/18 04:36:30;;;;;;;25.73;19.67;;;;;;;2.22;100.00;99898.44;4985702;28;20239;-55
2022/11/18 04:38:56;;;;;;;23.10;18.63;;;;;;;2.59;100.00;99905.13;4983880;28;20518;-52
2022/11/18 04:41:54;;;;;;;25.40;19.80;;;;;;;2.76;100.00;99908.03;4977849;28;20247;-54
2022/11/18 04:44:11;;;;;;;24.17;20.03;;;;;;;2.83;100.00;99918.53;4973022;28;20241;-54
2022/11/18 04:46:39;;;;;;;25.57;21.27;;;;;;;2.69;100.00;99920.00;4976827;28;20422;-54
2022/11/18 04:49:06;;;;;;;28.40;21.63;;;;;;;2.77;100.00;99926.22;4981202;28;20746;-54
2022/11/18 04:51:34;;;;;;;24.60;20.43;;;;;;;2.25;100.00;99920.06;4980809;28;20732;-54
2022/11/18 04:54:00;;;;;;;26.90;19.83;;;;;;;2.33;100.00;99934.03;4978867;28;20795;-55
2022/11/18 04:56:27;;;;;;;25.27;19.77;;;;;;;2.75;100.00;99930.50;4979026;28;20245;-54
2022/11/18 04:58:54;;;;;;;30.60;22.67;;;;;;;2.83;100.00;99933.22;4978699;28;20324;-54
2022/11/18 05:01:20;;;;;;;26.43;21.47;;;;;;;2.62;99.51;99928.53;4984276;28;20670;-54
2022/11/18 05:03:47;;;;;;;29.60;22.57;;;;;;;2.42;100.00;99935.03;4984103;28;20238;-54
2022/11/18 05:06:14;;;;;;;27.57;21.33;;;;;;;2.61;100.00;99931.97;4978021;28;20757;-54
2022/11/18 05:08:42;;;;;;;28.83;21.23;;;;;;;2.59;100.00;99941.41;4982743;28;20317;-53
2022/11/18 05:13:50;;;;;;;27.87;20.97;;;;;;;2.25;98.95;99945.97;4977718;28;20232;-54
2022/11/18 05:16:16;;;;;;;29.20;20.93;;;;;;;2.48;100.00;99937.75;4984731;28;20240;-54
2022/11/18 05:18:43;;;;;;;27.33;21.77;;;;;;;2.36;100.00;99938.41;4984189;28;20240;-54
2022/11/18 05:21:10;;;;;;;27.80;22.27;;;;;;;2.07;100.00;99943.00;4984969;28;20327;-54
2022/11/18 05:23:36;;;;;;;27.03;20.63;;;;;;;2.13;100.00;99935.34;4987108;28;20236;-53
2022/11/18 05:26:05;;;;;;;28.83;22.97;;;;;;;2.10;100.00;99943.94;4978910;28;20245;-53
2022/11/18 05:28:32;;;;;;;26.17;21.17;;;;;;;1.75;100.00;99950.97;4979669;28;20678;-55
2022/11/18 05:31:00;;;;;;;31.27;22.90;;;;;;;1.98;100.00;99953.19;4982078;28;20668;-54
2022/11/18 05:33:26;;;;;;;27.73;22.00;;;;;;;1.99;100.00;99947.16;4978763;28;20790;-54
2022/11/18 05:35:53;;;;;;;27.43;21.43;;;;;;;1.84;100.00;99952.88;4974896;28;20242;-54
2022/11/18 05:38:20;;;;;;;31.27;22.00;;;;;;;2.23;100.00;99958.00;4985203;28;20236;-55
2022/11/18 05:40:47;;;;;;;28.53;21.53;;;;;;;2.20;100.00;99952.75;4979636;28;20237;-54
2022/11/18 05:43:15;;;;;;;27.37;19.70;;;;;;;2.36;100.00;99959.13;4967523;28;20785;-54
2022/11/18 05:45:44;;;;;;;27.53;19.97;;;;;;;2.47;100.00;99956.75;4981158;28;20825;-55
2022/11/18 05:48:11;;;;;;;26.37;19.80;;;;;;;2.10;96.22;99966.34;4979240;28;20236;-54
2022/11/18 05:50:39;;;;;;;26.90;20.63;;;;;;;2.08;99.60;99970.66;4973067;28;20236;-54
2022/11/18 05:53:05;;;;;;;24.47;18.97;;;;;;;2.17;100.00;99983.78;4972093;28;20237;-54
2022/11/18 05:55:36;;;;;;;29.80;21.47;;;;;;;1.97;99.60;99978.19;4977929;28;20237;-53
2022/11/18 05:58:03;;;;;;;29.03;19.73;;;;;;;2.57;99.90;99985.44;4972174;28;20328;-54
2022/11/18 06:00:31;;;;;;;25.80;19.60;;;;;;;2.87;98.40;99990.31;4977235;28;20744;-53
2022/11/18 06:02:59;;;;;;;24.50;19.93;;;;;;;2.61;96.82;99986.38;4971624;28;20660;-54
2022/11/18 06:05:26;;;;;;;26.67;19.83;;;;;;;2.63;98.58;99984.66;4981077;28;20341;-54
2022/11/18 06:07:55;;;;;;;23.53;18.63;;;;;;;2.90;98.88;99989.50;4975330;28;20315;-54
2022/11/18 06:10:25;;;;;;;24.80;18.63;;;;;;;2.69;97.02;100000.34;4972754;28;20272;-53
2022/11/18 06:12:55;;;;;;;25.13;18.00;;;;;;;2.86;96.32;100006.72;4983174;28;20254;-54
2022/11/18 06:15:24;;;;;;;21.20;17.27;;;;;;;2.92;92.72;99997.31;4978714;28;20967;-56
2022/11/18 06:17:55;;;;;;;21.93;16.13;;;;;;;2.29;93.08;99999.56;4977749;28;20718;-54
2022/11/18 06:20:22;;;;;;;19.90;16.23;;;;;;;2.56;93.86;100009.63;4984009;28;20233;-53
2022/11/18 06:22:51;;;;;;;20.03;15.00;;;;;;;2.42;89.27;100015.34;4977943;28;20591;-59
2022/11/18 06:25:19;;;;;;;18.80;16.03;;;;;;;2.70;96.25;100012.44;4979122;28;20252;-54
2022/11/18 06:27:46;;;;;;;20.97;15.63;;;;;;;2.24;92.25;100019.31;4984132;28;20696;-54
2022/11/18 06:30:14;;;;;;;16.90;14.13;;;;;;;2.32;90.93;100024.69;4979304;28;20246;-53
2022/11/18 06:32:41;;;;;;;16.80;13.27;;;;;;;2.17;92.02;100019.16;4970820;28;20253;-54
2022/11/18 06:35:10;;;;;;;18.43;14.43;;;;;;;2.13;90.30;100023.41;4980985;28;20296;-55
2022/11/18 06:37:37;;;;;;;17.07;15.23;;;;;;;1.77;92.77;100028.63;4982734;28;20607;-54
2022/11/18 06:40:05;;;;;;;19.83;15.23;;;;;;;1.88;91.29;100029.75;4981785;28;20265;-55
2022/11/18 06:45:16;;;;;;;20.57;14.80;;;;;;;1.83;89.69;100032.25;4975166;28;20243;-54
2022/11/18 06:47:43;;;;;;;20.10;14.27;;;;;;;1.57;89.26;100031.63;4981815;28;20288;-53
2022/11/18 06:50:12;;;;;;;19.43;14.93;;;;;;;1.55;92.47;100037.63;4969257;28;20292;-54
2022/11/18 06:52:39;;;;;;;19.73;15.10;;;;;;;2.10;92.68;100047.50;4979557;28;20284;-54
2022/11/18 06:55:07;;;;;;;18.53;14.53;;;;;;;2.31;88.63;100047.09;4970192;28;20241;-54
2022/11/18 06:57:34;;;;;;;22.23;15.03;;;;;;;2.41;91.91;100049.88;4979503;28;20672;-54
2022/11/18 07:00:01;;;;;;;19.20;15.50;;;;;;;2.42;88.84;100046.44;4981639;28;20365;-55
2022/11/18 07:02:28;;;;;;;16.73;13.53;;;;;;;1.90;86.11;100061.72;4979034;28;20240;-54
2022/11/18 07:04:55;;;;;;;18.67;14.60;;;;;;;1.96;89.25;100053.22;4974293;28;20230;-53
2022/11/18 07:07:23;;;;;;;19.00;14.10;;;;;;;1.99;85.48;100068.81;4978422;28;20873;-53
2022/11/18 07:09:50;;;;;;;16.93;15.00;;;;;;;1.89;87.69;100063.41;4980348;28;20315;-53
2022/11/18 07:12:17;;;;;;;20.73;15.53;;;;;;;1.85;88.52;100061.59;4981678;28;20252;-53
2022/11/18 07:14:44;;;;;;;15.87;13.97;;;;;;;2.44;91.27;100065.50;4982726;28;20691;-54
2022/11/18 07:17:11;;;;;;;19.60;15.27;;;;;;;2.22;86.36;100071.94;4980011;28;20253;-54
2022/11/18 07:19:39;;;;;;;20.10;15.57;;;;;;;2.19;89.06;100074.44;4984020;28;20234;-59
2022/11/18 07:22:06;;;;;;;18.57;14.23;;;;;;;1.83;85.47;100080.56;4980975;28;20323;-54
2022/11/18 07:24:35;;;;;;;17.27;14.33;;;;;;;1.67;84.97;100074.13;4980543;28;20228;-54
2022/11/18 07:27:02;;;;;;;20.57;15.17;;;;;;;1.74;87.62;100085.50;4979567;28;20734;-54
2022/11/18 07:29:29;;;;;;;18.27;14.67;;;;;;;1.83;88.01;100084.00;4976978;28;20593;-53
2022/11/18 07:31:56;;;;;;;22.40;16.40;;;;;;;1.47;87.40;100078.78;4980324;28;20236;-54
2022/11/18 07:34:22;;;;;;;20.53;14.83;;;;;;;1.92;90.49;100081.63;4973276;28;20243;-53
2022/11/18 07:36:49;;;;;;;17.97;14.57;;;;;;;1.46;86.32;100084.81;4975271;28;20232;-59
2022/11/18 07:39:17;;;;;;;21.03;16.10;;;;;;;1.29;86.45;100089.53;4981088;28;20233;-54
2022/11/18 07:41:45;;;;;;;21.70;16.13;;;;;;;1.62;89.30;100086.94;4980755;28;20240;-53
2022/11/18 07:44:12;;;;;;;18.10;14.93;;;;;;;1.75;86.61;100095.00;4981900;28;20329;-53
2022/11/18 07:46:39;;;;;;;21.97;15.73;;;;;;;1.63;88.79;100093.00;4981156;28;20439;-54
2022/11/18 07:49:07;;;;;;;20.57;15.83;;;;;;;1.50;85.79;100081.47;4974906;28;20716;-54
2022/11/18 07:51:35;;;;;;;21.53;15.97;;;;;;;1.38;88.41;100088.94;4976971;28;20230;-54
2022/11/18 07:54:06;;;;;;;24.40;17.40;;;;;;;1.60;85.14;100092.91;4972157;28;20244;-54
2022/11/18 07:56:33;;;;;;;22.63;15.60;;;;;;;1.99;86.83;100102.47;4976838;28;20252;-54
2022/11/18 07:59:01;;;;;;;22.83;15.77;;;;;;;1.92;87.66;100102.31;4970961;28;20238;-54
2022/11/18 08:01:29;;;;;;;20.53;16.17;;;;;;;1.85;86.77;100105.59;4976741;28;20565;-55
2022/11/18 08:03:56;;;;;;;17.57;14.37;;;;;;;1.92;85.47;100102.31;4967371;28;20268;-54
2022/11/18 08:06:23;;;;;;;20.07;15.50;;;;;;;2.11;85.86;100113.13;4975354;28;20264;-53
2022/11/18 08:08:50;;;;;;;19.50;16.23;;;;;;;1.99;83.49;100097.28;4975980;28;20243;-54
2022/11/18 08:11:19;;;;;;;19.23;15.33;;;;;;;1.65;84.43;100112.00;4981552;28;20324;-55
2022/11/18 08:13:46;;;;;;;18.17;14.87;;;;;;;1.79;85.03;100114.94;4980731;28;20236;-55
2022/11/18 08:16:16;;;;;;;21.20;15.73;;;;;;;1.62;84.84;100119.72;4978556;28;20264;-54
2022/11/18 08:18:43;;;;;;;18.53;15.10;;;;;;;1.47;85.25;100127.94;4974122;28;20233;-53
2022/11/18 08:21:11;;;;;;;18.67;14.83;;;;;;;2.16;87.23;100127.03;4975768;28;20245;-54
2022/11/18 08:23:38;;;;;;;22.30;16.37;;;;;;;1.82;81.97;100131.41;4982292;28;20233;-53
2022/11/18 08:26:07;;;;;;;18.17;14.33;;;;;;;1.83;81.84;100132.31;4975452;28;20226;-54
2022/11/18 08:28:35;;;;;;;18.57;14.00;;;;;;;1.81;83.68;100140.03;4978624;28;20657;-56
2022/11/18 08:31:09;;;;;;;18.90;15.40;;;;;;;1.78;85.48;100139.06;4979547;28;20327;-54
2022/11/18 08:33:37;;;;;;;18.60;13.97;;;;;;;1.74;84.67;100135.53;4980692;28;20635;-54
2022/11/18 08:36:07;;;;;;;17.90;15.40;;;;;;;1.59;83.57;100137.75;4976276;28;20245;-53
2022/11/18 08:38:34;;;;;;;24.00;16.20;;;;;;;1.72;84.26;100129.47;4971651;28;20315;-54
2022/11/18 08:41:02;;;;;;;19.50;15.00;;;;;;;2.23;81.59;100139.28;4984384;28;20276;-54
2022/11/18 08:43:29;;;;;;;17.53;13.63;;;;;;;1.87;83.41;100145.34;4985094;28;20655;-54
2022/11/18 08:45:55;;;;;;;16.50;14.27;;;;;;;1.88;82.40;100147.09;4977102;28;20248;-54
2022/11/18 08:48:22;;;;;;;17.63;15.60;;;;;;;1.30;82.75;100153.38;4977715;28;20237;-54
2022/11/18 08:50:51;;;;;;;21.43;14.23;;;;;;;1.65;83.98;100154.31;4979406;28;20621;-55
2022/11/18 08:53:18;;;;;;;18.53;15.10;;;;;;;1.27;82.55;100165.34;4985859;28;20287;-55
2022/11/18 08:55:45;;;;;;;18.00;13.63;;;;;;;1.22;81.37;100169.50;4978162;28;20265;-54
2022/11/18 08:58:11;;;;;;;18.33;13.97;;;;;;;1.12;83.41;100174.44;4980363;28;20236;-54
2022/11/18 09:00:38;;;;;;;18.67;14.30;;;;;;;1.38;82.66;100161.34;4984509;28;20240;-54
2022/11/18 09:03:05;;;;;;;19.70;17.23;;;;;;;1.30;82.26;100178.34;4983513;28;20234;-55
2022/11/18 09:05:32;;;;;;;17.97;13.27;;;;;;;1.52;82.09;100182.41;4983395;28;20260;-54
2022/11/18 09:08:00;;;;;;;18.50;14.33;;;;;;;1.38;81.86;100180.31;4977212;28;20325;-53
2022/11/18 09:10:27;;;;;;;19.00;15.20;;;;;;;1.48;83.29;100190.91;4981574;28;20243;-56
2022/11/18 09:12:54;;;;;;;17.03;14.50;;;;;;;1.56;81.94;100187.69;4982394;28;20243;-53
2022/11/18 09:15:22;;;;;;;17.57;14.23;;;;;;;1.21;81.09;100201.38;4985185;28;20248;-54
2022/11/18 09:17:49;;;;;;;19.80;14.30;;;;;;;1.07;84.62;100201.84;4980825;28;20241;-54
2022/11/18 09:20:17;;;;;;;19.53;14.40;;;;;;;1.36;84.63;100215.59;4983336;28;20312;-54
2022/11/18 09:22:44;;;;;;;19.37;14.17;;;;;;;0.98;85.41;100209.34;4982615;28;20295;-53
2022/11/18 09:25:12;;;;;;;17.63;14.00;;;;;;;1.18;82.42;100217.66;4981588;28;20243;-55
2022/11/18 09:27:39;;;;;;;17.20;13.27;;;;;;;1.43;86.28;100220.09;4979385;28;20270;-53
2022/11/18 09:30:07;;;;;;;18.53;13.20;;;;;;;1.46;81.08;100219.31;4984543;28;20229;-54
2022/11/18 09:32:34;;;;;;;16.83;13.33;;;;;;;1.53;81.17;100228.13;4978399;28;20243;-54
2022/11/18 09:35:01;;;;;;;21.33;15.00;;;;;;;1.44;80.44;100215.81;4979300;28;20249;-54
2022/11/18 09:37:28;;;;;;;15.50;13.43;;;;;;;1.09;81.89;100236.41;4983932;28;20252;-54
2022/11/18 09:39:55;;;;;;;15.53;12.90;;;;;;;1.25;80.28;100229.94;4983145;28;20268;-55
2022/11/18 09:42:42;;;;;;;13.67;11.37;;;;;;;2.00;84.65;100233.66;4980073;28;20628;-54
2022/11/18 09:45:20;;;;;;;18.47;13.70;;;;;;;1.98;81.84;100225.00;4977902;28;20479;-55
2022/11/18 09:47:47;;;;;;;16.87;12.50;;;;;;;1.56;81.60;100241.13;4981428;28;20683;-54
2022/11/18 09:50:15;;;;;;;18.77;14.00;;;;;;;1.32;80.76;100236.16;4973597;28;20652;-56
2022/11/18 09:52:46;;;;;;;14.60;12.30;;;;;;;1.33;83.08;100232.72;4980976;28;20900;-54
2022/11/18 09:55:14;;;;;;;16.37;12.00;;;;;;;1.41;82.24;100242.47;4983204;28;20244;-55
2022/11/18 09:57:45;;;;;;;17.37;12.00;;;;;;;1.61;81.77;100249.88;4981942;28;20289;-54
2022/11/18 10:00:17;;;;;;;15.17;11.87;;;;;;;1.67;81.92;100244.88;4978402;28;20320;-53
2022/11/18 10:02:51;;;;;;;15.00;11.43;;;;;;;1.74;81.36;100256.28;4973032;28;20228;-56
2022/11/18 10:05:20;;;;;;;14.30;10.80;;;;;;;1.95;84.20;100245.63;4979904;28;20737;-54
2022/11/18 10:07:55;;;;;;;11.10;9.70;;;;;;;1.56;80.61;100259.25;4980562;28;20734;-54
2022/11/18 10:10:25;;;;;;;10.70;9.23;;;;;;;1.52;80.51;100258.28;4981851;28;20229;-56
2022/11/18 10:12:57;;;;;;;12.20;9.07;;;;;;;1.40;80.54;100261.44;4980608;28;20272;-55
2022/11/18 10:15:29;;;;;;;9.83;7.80;;;;;;;1.60;80.17;100256.78;4978268;28;20256;-55
2022/11/18 10:18:03;;;;;;;8.97;8.07;;;;;;;1.53;79.31;100272.97;4979717;28;20260;-56
2022/11/18 10:20:42;;;;;;;10.00;7.73;;;;;;;1.24;77.07;100264.41;4982784;28;20339;-55
2022/11/18 10:23:13;;;;;;;9.80;7.40;;;;;;;1.11;78.40;100267.44;4977546;28;20351;-56
2022/11/18 10:25:40;;;;;;;9.57;6.97;;;;;;;0.94;78.32;100265.22;4984496;28;20309;-55
2022/11/18 10:28:17;;;;;;;9.03;6.80;;;;;;;0.82;78.96;100254.53;4980662;28;20276;-55
2022/11/18 10:30:44;;;;;;;10.03;6.53;;;;;;;0.98;80.08;100271.38;4970889;28;20237;-55
2022/11/18 10:33:26;;;;;;;8.47;6.93;;;;;;;1.24;82.30;100273.88;4973724;28;20370;-54
2022/11/18 10:36:09;;;;;;;8.57;7.30;;;;;;;1.28;80.90;100271.41;4975979;28;20724;-55
2022/11/18 10:38:35;;;;;;;8.27;6.97;;;;;;;1.28;77.05;100275.69;4979998;28;20226;-54
2022/11/18 10:41:04;;;;;;;7.80;6.83;;;;;;;1.65;80.33;100272.41;4977095;28;20258;-55
2022/11/18 10:43:49;;;;;;;9.00;6.97;;;;;;;1.26;80.80;100279.94;4977160;28;20237;-56
2022/11/18 10:46:18;;;;;;;6.97;5.83;;;;;;;1.62;81.92;100278.41;4978427;28;20276;-54
2022/11/18 10:48:45;;;;;;;6.43;5.57;;;;;;;1.72;79.11;100287.31;4980918;28;20237;-56
2022/11/18 10:51:21;;;;;;;7.97;6.47;;;;;;;1.52;77.20;100281.56;4977960;28;20248;-54
2022/11/18 10:53:48;;;;;;;6.93;6.33;;;;;;;1.28;81.83;100284.34;4978580;28;20247;-54
2022/11/18 10:56:15;;;;;;;7.50;6.33;;;;;;;1.10;81.05;100292.44;4974336;28;20738;-53
2022/11/18 10:58:44;;;;;;;8.00;7.13;;;;;;;1.52;85.67;100299.69;4977851;28;20238;-53
2022/11/18 11:01:20;;;;;;;7.50;6.47;;;;;;;1.30;80.64;100293.03;4977552;28;20307;-53
2022/11/18 11:03:55;;;;;;;8.20;6.27;;;;;;;1.42;81.83;100295.06;4977531;28;20311;-56
2022/11/18 11:06:32;;;;;;;7.30;5.97;;;;;;;1.43;78.93;100302.88;4980099;28;20613;-53
2022/11/18 11:09:02;;;;;;;8.53;6.63;;;;;;;1.36;77.09;100305.22;4982042;28;20312;-54
2022/11/18 11:11:30;;;;;;;7.13;6.33;;;;;;;1.58;77.27;100297.28;4972449;28;20444;-53
2022/11/18 11:14:12;;;;;;;7.47;6.67;;;;;;;1.46;75.66;100303.81;4975528;28;20613;-54
2022/11/18 11:16:45;;;;;;;7.47;6.63;;;;;;;1.41;80.69;100304.56;4985615;28;20284;-53
2022/11/18 11:19:13;;;;;;;8.93;7.23;;;;;;;1.60;79.72;100297.31;4981792;28;20324;-53
2022/11/18 11:21:39;;;;;;;7.70;6.23;;;;;;;1.40;77.15;100313.16;4985153;28;20228;-53
2022/11/18 11:24:11;;;;;;;7.73;6.80;;;;;;;1.59;81.41;100303.31;4985519;28;20241;-54
2022/11/18 11:26:44;;;;;;;8.87;7.00;;;;;;;1.48;75.91;100299.56;4981020;28;20603;-54
2022/11/18 11:29:19;;;;;;;12.67;7.50;;;;;;;1.83;78.24;100306.59;4980369;28;20711;-54
2022/11/18 11:31:54;;;;;;;7.57;6.30;;;;;;;1.69;79.34;100300.16;4979918;28;20241;-54
2022/11/18 11:34:26;;;;;;;7.50;6.70;;;;;;;1.64;79.17;100309.47;4980133;28;20426;-53
2022/11/18 11:36:57;;;;;;;8.63;7.03;;;;;;;2.11;79.99;100309.91;4980274;28;20323;-56
2022/11/18 11:39:40;;;;;;;9.83;7.73;;;;;;;2.10;78.26;100308.13;4976733;28;20232;-54
2022/11/18 11:42:14;;;;;;;9.20;7.20;;;;;;;2.03;77.51;100303.63;4977049;28;20327;-53
2022/11/18 11:44:53;;;;;;;9.13;7.07;;;;;;;1.86;77.41;100311.84;4980070;28;20236;-53